Time;durP1;ratioP1;P1;durP2;ratioP2;P2;SDS_P1;SDS_P2;PMS_P1;PMS_P2;Temp;Humidity;BMP_temperature;BMP_pressure;BME280_temperature;BME280_humidity;BME280_pressure;Samples;Min_cycle;Max_cycle;Signal;HPM_P1;HPM_P2
2023/06/20 00:00:44;;;;;;;95.72;59.33;;;;;;;;;;4957385;29;20028;-68
2023/06/20 00:03:11;;;;;;;167.02;115.03;;;;;;;;;;4957448;29;20027;-69
2023/06/20 00:05:37;;;;;;;63.22;43.70;;;;;;;;;;4957573;29;20074;-68
2023/06/20 00:08:04;;;;;;;162.18;92.13;;;;;;;;;;4957112;29;20031;-69
2023/06/20 00:10:31;;;;;;;118.25;82.05;;;;;;;;;;4957361;29;20027;-68
2023/06/20 00:12:59;;;;;;;89.32;56.85;;;;;;;;;;4957721;29;20023;-68
2023/06/20 00:15:26;;;;;;;86.70;49.58;;;;;;;;;;4957446;29;20026;-68
2023/06/20 00:17:53;;;;;;;113.53;75.15;;;;;;;;;;4957415;29;20086;-69
2023/06/20 00:20:20;;;;;;;127.88;82.47;;;;;;;;;;4957295;29;20027;-68
2023/06/20 00:22:50;;;;;;;156.55;106.93;;;;;;;;;;4957153;29;20031;-69
2023/06/20 00:25:17;;;;;;;140.18;90.15;;;;;;;;;;4957089;29;20028;-68
2023/06/20 00:27:44;;;;;;;59.45;40.00;;;;;;;;;;4956985;29;20480;-66
2023/06/20 00:30:11;;;;;;;55.50;37.00;;;;;;;;;;4956804;29;20066;-68
2023/06/20 00:32:37;;;;;;;60.60;36.58;;;;;;;;;;4955692;28;20024;-68
2023/06/20 00:35:04;;;;;;;68.63;37.40;;;;;;;;;;4956926;29;20030;-67
2023/06/20 00:37:31;;;;;;;58.22;35.10;;;;;;;;;;4956910;29;20028;-69
2023/06/20 00:39:57;;;;;;;57.03;37.25;;;;;;;;;;4957002;29;20396;-67
2023/06/20 00:42:24;;;;;;;57.03;35.28;;;;;;;;;;4956678;29;20109;-67
2023/06/20 00:44:51;;;;;;;45.33;31.05;;;;;;;;;;4956895;29;20027;-67
2023/06/20 00:47:19;;;;;;;51.45;29.23;;;;;;;;;;4956896;29;20023;-67
2023/06/20 00:49:46;;;;;;;43.72;27.70;;;;;;;;;;4951007;29;20035;-67
2023/06/20 00:52:15;;;;;;;39.20;25.90;;;;;;;;;;4947221;29;20477;-68
2023/06/20 00:54:44;;;;;;;47.28;26.30;;;;;;;;;;4944219;29;20028;-68
2023/06/20 00:57:13;;;;;;;63.25;38.58;;;;;;;;;;4947956;28;20504;-68
2023/06/20 00:59:46;;;;;;;59.10;39.83;;;;;;;;;;4952147;29;20432;-68
2023/06/20 01:02:16;;;;;;;93.32;60.45;;;;;;;;;;4947556;29;20102;-68
2023/06/20 01:04:44;;;;;;;75.30;49.15;;;;;;;;;;4947221;29;20035;-68
2023/06/20 01:07:13;;;;;;;121.72;83.00;;;;;;;;;;4945141;29;20102;-68
2023/06/20 01:09:52;;;;;;;82.22;52.15;;;;;;;;;;4944856;28;20043;-68
2023/06/20 01:12:21;;;;;;;41.28;23.25;;;;;;;;;;4945354;29;20029;-67
2023/06/20 01:14:57;;;;;;;38.92;23.08;;;;;;;;;;4949262;29;20493;-67
2023/06/20 01:17:42;;;;;;;30.38;18.25;;;;;;;;;;4945712;29;20477;-67
2023/06/20 01:20:15;;;;;;;35.95;19.60;;;;;;;;;;4946346;29;20015;-66
2023/06/20 01:22:45;;;;;;;32.95;18.20;;;;;;;;;;4945103;29;20088;-66
2023/06/20 01:25:24;;;;;;;29.63;18.15;;;;;;;;;;4949095;29;20592;-65
2023/06/20 01:28:04;;;;;;;31.40;18.33;;;;;;;;;;4946625;29;20074;-66
2023/06/20 01:30:40;;;;;;;36.13;20.00;;;;;;;;;;4945799;29;20433;-65
2023/06/20 01:33:08;;;;;;;42.05;19.02;;;;;;;;;;4945665;29;20055;-65
2023/06/20 01:35:36;;;;;;;35.10;17.63;;;;;;;;;;4943852;29;20063;-65
2023/06/20 01:38:05;;;;;;;29.33;16.63;;;;;;;;;;4945309;29;20050;-65
2023/06/20 01:40:34;;;;;;;28.20;16.45;;;;;;;;;;4945345;29;20024;-63
2023/06/20 01:43:01;;;;;;;28.80;16.33;;;;;;;;;;4943591;29;20032;-64
2023/06/20 01:45:28;;;;;;;31.85;15.77;;;;;;;;;;4944697;29;20019;-61
2023/06/20 01:47:59;;;;;;;27.27;16.00;;;;;;;;;;4945499;29;20106;-62
2023/06/20 01:50:28;;;;;;;28.77;16.73;;;;;;;;;;4941879;29;20392;-63
2023/06/20 01:52:55;;;;;;;27.08;15.35;;;;;;;;;;4944291;29;20027;-61
2023/06/20 01:55:22;;;;;;;33.42;16.48;;;28.60;99.90;;;;;;4943536;29;20028;-62
2023/06/20 01:57:49;;;;;;;26.02;15.70;;;;;;;;;;4947301;29;20072;-62
2023/06/20 02:00:17;;;;;;;113.50;69.60;;;28.40;99.90;;;;;;4949695;29;20032;-61
2023/06/20 02:02:45;;;;;;;53.80;36.13;;;28.40;99.90;;;;;;4943996;29;20020;-62
2023/06/20 02:05:13;;;;;;;54.88;35.22;;;28.70;99.90;;;;;;4944570;29;20051;-62
2023/06/20 02:07:41;;;;;;;39.47;24.20;;;28.60;99.90;;;;;;4946024;29;20480;-63
2023/06/20 02:10:09;;;;;;;83.78;61.05;;;28.60;99.90;;;;;;4944715;29;20066;-63
2023/06/20 02:12:36;;;;;;;75.55;49.75;;;28.70;99.90;;;;;;4944388;29;20113;-63
2023/06/20 02:15:04;;;;;;;21.40;15.23;;;28.80;99.90;;;;;;4945521;29;20019;-63
2023/06/20 02:17:31;;;;;;;33.70;23.20;;;28.80;99.90;;;;;;4945060;29;20024;-64
2023/06/20 02:19:58;;;;;;;28.10;18.60;;;29.00;99.90;;;;;;4943927;29;20031;-64
2023/06/20 02:22:27;;;;;;;48.70;30.92;;;29.00;99.90;;;;;;4946957;29;20023;-63
2023/06/20 02:25:02;;;;;;;37.38;24.73;;;29.00;99.90;;;;;;4950098;29;20380;-63
2023/06/20 02:27:28;;;;;;;123.40;80.25;;;29.10;99.90;;;;;;4952510;29;20023;-63
2023/06/20 02:29:57;;;;;;;33.47;20.83;;;29.30;99.90;;;;;;4953815;29;20035;-63
2023/06/20 02:32:25;;;;;;;24.73;17.20;;;29.20;99.90;;;;;;4948581;29;20020;-65
2023/06/20 02:34:52;;;;;;;14.50;10.60;;;29.20;99.90;;;;;;4946868;29;20499;-65
2023/06/20 02:37:20;;;;;;;18.90;11.25;;;29.30;99.90;;;;;;4948774;29;20030;-64
2023/06/20 02:39:48;;;;;;;25.52;12.52;;;29.40;99.90;;;;;;4947114;29;20020;-65
2023/06/20 02:42:15;;;;;;;20.50;11.52;;;29.30;99.90;;;;;;4942698;29;20085;-65
2023/06/20 02:44:41;;;;;;;18.63;12.23;;;29.30;99.90;;;;;;4940085;29;20039;-65
2023/06/20 02:47:45;;;;;;;25.27;13.60;;;29.30;99.90;;;;;;4945295;29;20474;-65
2023/06/20 02:50:41;;;;;;;19.75;12.55;;;29.50;99.90;;;;;;4939409;29;20416;-65
2023/06/20 02:53:36;;;;;;;17.63;12.02;;;29.70;99.90;;;;;;4939201;29;20028;-68
2023/06/20 02:56:12;;;;;;;16.23;10.52;;;29.70;99.90;;;;;;4927172;29;20020;-66
2023/06/20 02:58:44;;;;;;;12.25;9.32;;;29.90;99.90;;;;;;4947838;29;20023;-65
2023/06/20 03:01:14;;;;;;;14.05;8.75;;;29.90;99.90;;;;;;4947395;29;20030;-65
2023/06/20 03:03:44;;;;;;;16.00;9.20;;;29.90;99.90;;;;;;4948774;29;20035;-64
2023/06/20 03:06:14;;;;;;;15.50;9.10;;;29.90;99.90;;;;;;4944674;29;20031;-64
2023/06/20 03:08:43;;;;;;;14.07;8.35;;;30.00;99.90;;;;;;4943753;29;20039;-64
2023/06/20 03:11:10;;;;;;;11.00;7.93;;;30.00;99.90;;;;;;4947645;29;20031;-65
2023/06/20 03:13:36;;;;;;;14.82;8.52;;;30.00;99.90;;;;;;4946119;29;20118;-65
2023/06/20 03:16:08;;;;;;;14.82;9.80;;;30.00;99.90;;;;;;4946874;29;20016;-64
2023/06/20 03:18:36;;;;;;;15.52;8.60;;;30.10;99.90;;;;;;4948164;29;20075;-66
2023/06/20 03:21:03;;;;;;;11.77;8.93;;;30.10;99.90;;;;;;4947657;29;20404;-64
2023/06/20 03:23:30;;;;;;;14.13;10.30;;;30.10;99.90;;;;;;4950818;29;20035;-71
2023/06/20 03:25:56;;;;;;;77.68;51.75;;;30.20;99.90;;;;;;4947346;29;20460;-69
2023/06/20 03:28:24;;;;;;;23.42;15.48;;;30.30;99.90;;;;;;4951581;29;20118;-69
2023/06/20 03:30:51;;;;;;;28.48;19.17;;;30.30;99.90;;;;;;4947127;29;20453;-68
2023/06/20 03:33:18;;;;;;;55.75;37.30;;;30.40;99.90;;;;;;4949679;28;20480;-69
2023/06/20 03:35:45;;;;;;;117.35;80.20;;;30.40;99.90;;;;;;4948650;29;20023;-69
2023/06/20 03:38:12;;;;;;;28.77;19.58;;;30.50;99.90;;;;;;4948649;29;20102;-70
2023/06/20 03:40:38;;;;;;;22.15;13.43;;;30.60;99.90;;;;;;4951371;29;20120;-72
2023/06/20 03:43:05;;;;;;;20.23;13.85;;;30.70;99.90;;;;;;4945946;29;20174;-72
2023/06/20 03:45:32;;;;;;;22.48;14.02;;;30.70;99.90;;;;;;4946686;29;20038;-71
2023/06/20 03:47:58;;;;;;;21.13;11.95;;;30.80;99.90;;;;;;4952047;29;20388;-71
2023/06/20 03:50:25;;;;;;;14.70;9.48;;;30.80;99.90;;;;;;4948045;29;20480;-69
2023/06/20 03:52:52;;;;;;;16.33;10.10;;;30.80;99.90;;;;;;4950429;29;20539;-70
2023/06/20 03:55:18;;;;;;;13.50;10.05;;;30.90;99.90;;;;;;4948476;29;20095;-71
2023/06/20 03:57:45;;;;;;;14.32;10.52;;;30.90;99.90;;;;;;4951760;29;20031;-71
2023/06/20 04:00:12;;;;;;;17.20;10.27;;;30.90;99.90;;;;;;4948831;29;20047;-72
2023/06/20 04:02:43;;;;;;;12.65;9.25;;;31.00;99.90;;;;;;4945870;29;20501;-72
2023/06/20 04:05:10;;;;;;;12.20;9.23;;;31.00;99.90;;;;;;4946563;29;20507;-71
2023/06/20 04:07:36;;;;;;;12.23;9.52;;;31.00;99.90;;;;;;4945770;29;20019;-69
2023/06/20 04:10:04;;;;;;;16.05;10.80;;;31.10;99.90;;;;;;4951313;29;20489;-70
2023/06/20 04:12:30;;;;;;;13.40;10.77;;;31.20;99.90;;;;;;4930714;29;20059;-69
2023/06/20 04:14:57;;;;;;;15.27;9.52;;;31.20;99.90;;;;;;4948195;29;20074;-72
2023/06/20 04:17:23;;;;;;;13.75;9.07;;;31.20;99.90;;;;;;4950075;29;20480;-68
2023/06/20 04:19:50;;;;;;;16.73;8.27;;;31.30;99.90;;;;;;4946517;29;20039;-69
2023/06/20 04:22:16;;;;;;;14.25;8.90;;;31.30;99.90;;;;;;4950614;29;20035;-69
2023/06/20 04:24:43;;;;;;;14.73;8.40;;;31.30;99.90;;;;;;4947376;29;20023;-69
2023/06/20 04:27:10;;;;;;;8.77;7.60;;;31.40;99.90;;;;;;4946632;29;20564;-70
2023/06/20 04:29:37;;;;;;;12.70;7.68;;;31.50;99.90;;;;;;4945474;29;20548;-69
2023/06/20 04:32:03;;;;;;;13.35;8.32;;;31.60;99.90;;;;;;4929957;29;20031;-69
2023/06/20 04:34:30;;;;;;;10.27;6.90;;;31.60;99.90;;;;;;4946467;29;20500;-71
2023/06/20 04:36:56;;;;;;;10.43;6.65;;;31.60;99.90;;;;;;4945428;29;20389;-69
2023/06/20 04:39:23;;;;;;;15.45;8.40;;;31.60;99.90;;;;;;4953372;29;20027;-72
2023/06/20 04:41:49;;;;;;;13.60;7.40;;;31.70;99.90;;;;;;4956658;29;20050;-75
2023/06/20 04:44:16;;;;;;;8.23;7.32;;;31.80;99.90;;;;;;4955542;28;20023;-75
2023/06/20 04:46:42;;;;;;;10.80;7.38;;;31.80;99.90;;;;;;4938729;29;20395;-74
2023/06/20 04:49:09;;;;;;;12.85;7.75;;;31.90;99.90;;;;;;4956220;29;20038;-74
2023/06/20 04:51:36;;;;;;;19.95;10.55;;;31.90;99.90;;;;;;4956087;29;20082;-74
2023/06/20 04:54:05;;;;;;;23.92;14.98;;;32.00;99.90;;;;;;4956282;29;20062;-74
2023/06/20 04:56:31;;;;;;;22.77;8.80;;;32.00;99.90;;;;;;4950731;29;20392;-74
2023/06/20 04:58:59;;;;;;;15.55;8.32;;;32.10;99.90;;;;;;4939490;29;20024;-71
2023/06/20 05:01:25;;;;;;;11.25;7.88;;;32.10;99.90;;;;;;4948039;29;20023;-69
2023/06/20 05:03:53;;;;;;;15.85;7.90;;;32.10;99.90;;;;;;4946851;29;20496;-71
2023/06/20 05:06:19;;;;;;;12.05;8.25;;;32.20;99.90;;;;;;4950886;29;20031;-71
2023/06/20 05:08:46;;;;;;;10.82;8.65;;;32.20;99.90;;;;;;4947253;29;20031;-71
2023/06/20 05:11:12;;;;;;;12.20;9.52;;;32.30;99.90;;;;;;4956003;29;20027;-71
2023/06/20 05:13:39;;;;;;;15.48;9.77;;;32.30;99.90;;;;;;4956105;29;20026;-70
2023/06/20 05:16:05;;;;;;;10.35;7.65;;;32.30;99.90;;;;;;4956142;29;20024;-72
2023/06/20 05:18:32;;;;;;;11.38;8.65;;;32.30;99.90;;;;;;4955902;29;20491;-71
2023/06/20 05:20:58;;;;;;;12.38;9.35;;;32.40;99.90;;;;;;4955924;29;20362;-71
2023/06/20 05:23:26;;;;;;;16.00;10.57;;;32.50;99.90;;;;;;4956128;29;20098;-70
2023/06/20 05:25:53;;;;;;;12.43;8.77;;;32.50;99.90;;;;;;4955970;29;20078;-72
2023/06/20 05:28:20;;;;;;;16.00;9.80;;;32.50;99.90;;;;;;4956271;29;20449;-73
2023/06/20 05:30:47;;;;;;;16.02;9.82;;;32.40;99.90;;;;;;4955529;29;20110;-70
2023/06/20 05:33:16;;;;;;;17.80;9.63;;;32.40;99.90;;;;;;4954026;29;20130;-74
2023/06/20 05:35:44;;;;;;;12.27;7.50;;;32.40;99.90;;;;;;4947382;29;20055;-72
2023/06/20 05:38:13;;;;;;;13.40;7.72;;;32.40;99.90;;;;;;4936602;29;20030;-72
2023/06/20 05:40:40;;;;;;;19.13;12.43;;;32.40;99.90;;;;;;4939689;29;20031;-73
2023/06/20 05:43:06;;;;;;;19.73;11.98;;;32.40;99.90;;;;;;4955688;29;20031;-73
2023/06/20 05:45:33;;;;;;;15.57;8.88;;;32.40;99.90;;;;;;4953128;29;20023;-72
2023/06/20 05:48:00;;;;;;;12.10;7.82;;;32.40;99.90;;;;;;4946387;29;20055;-73
2023/06/20 05:50:26;;;;;;;12.55;9.05;;;32.40;99.90;;;;;;4953772;29;20035;-74
2023/06/20 05:52:53;;;;;;;23.60;11.63;;;32.40;99.90;;;;;;4952754;29;20027;-71
2023/06/20 05:55:20;;;;;;;16.75;10.00;;;32.40;99.90;;;;;;4937644;29;20027;-72
2023/06/20 05:57:46;;;;;;;15.23;8.38;;;32.40;99.90;;;;;;4936189;29;20489;-71
2023/06/20 06:00:16;;;;;;;11.13;7.32;;;32.40;99.90;;;;;;4948717;29;20368;-72
2023/06/20 06:02:46;;;;;;;10.27;8.15;;;32.40;99.90;;;;;;4946246;29;20150;-76
2023/06/20 06:05:13;;;;;;;22.13;12.70;;;32.30;99.90;;;;;;4946401;29;20027;-72
2023/06/20 06:07:39;;;;;;;8.85;7.20;;;32.30;99.90;;;;;;4952733;29;20035;-73
2023/06/20 06:10:10;;;;;;;36.05;21.55;;;32.30;99.90;;;;;;4955017;29;20098;-72
2023/06/20 06:12:37;;;;;;;45.30;24.25;;;32.30;99.90;;;;;;4948337;29;20482;-72
2023/06/20 06:15:04;;;;;;;15.68;10.95;;;32.30;99.90;;;;;;4936238;29;20035;-73
2023/06/20 06:17:32;;;;;;;13.63;8.52;;;32.30;99.90;;;;;;4936183;29;20456;-72
2023/06/20 06:19:58;;;;;;;12.93;8.88;;;32.30;99.90;;;;;;4936347;29;20028;-73
2023/06/20 06:22:25;;;;;;;14.25;9.63;;;32.30;99.90;;;;;;4935248;29;20477;-73
2023/06/20 06:24:51;;;;;;;10.45;8.32;;;32.40;99.90;;;;;;4935299;29;20032;-73
2023/06/20 06:27:18;;;;;;;9.85;8.00;;;32.40;99.90;;;;;;4935628;29;20079;-74
2023/06/20 06:29:45;;;;;;;10.15;7.32;;;32.40;99.90;;;;;;4935807;29;20035;-74
2023/06/20 06:32:13;;;;;;;11.85;7.45;;;32.50;99.90;;;;;;4935733;29;20146;-75
2023/06/20 06:34:41;;;;;;;7.78;6.53;;;32.50;99.90;;;;;;4935721;29;20366;-73
2023/06/20 06:37:09;;;;;;;14.27;7.40;;;32.60;99.90;;;;;;4935870;29;20473;-74
2023/06/20 06:39:37;;;;;;;16.33;10.48;;;32.70;99.90;;;;;;4935610;29;20034;-73
2023/06/20 06:42:04;;;;;;;11.15;8.10;;;32.80;99.90;;;;;;4935628;29;20052;-72
2023/06/20 06:44:30;;;;;;;10.00;8.10;;;32.80;99.90;;;;;;4935953;29;20598;-73
2023/06/20 06:46:57;;;;;;;11.52;7.75;;;32.80;99.90;;;;;;4918304;29;20399;-73
2023/06/20 06:49:23;;;;;;;10.85;8.05;;;32.80;99.90;;;;;;4935742;29;20032;-73
2023/06/20 06:51:50;;;;;;;13.05;7.55;;;32.90;99.90;;;;;;4935587;29;20034;-73
2023/06/20 06:54:17;;;;;;;9.18;6.32;;;32.80;99.90;;;;;;4935590;29;20027;-76
2023/06/20 06:56:43;;;;;;;9.73;6.20;;;32.80;99.90;;;;;;4935387;29;20030;-73
2023/06/20 06:59:10;;;;;;;17.30;13.57;;;32.70;99.90;;;;;;4935438;29;20466;-73
2023/06/20 07:01:36;;;;;;;13.05;9.30;;;32.70;99.90;;;;;;4935499;29;20051;-73
2023/06/20 07:04:03;;;;;;;8.25;6.85;;;32.70;99.90;;;;;;4935335;29;20115;-74
2023/06/20 07:06:30;;;;;;;9.93;7.18;;;32.70;99.90;;;;;;4918037;29;20122;-72
2023/06/20 07:08:56;;;;;;;8.43;6.32;;;32.70;99.90;;;;;;4937653;29;20389;-73
2023/06/20 07:11:24;;;;;;;10.02;7.25;;;32.70;99.90;;;;;;4938868;29;20119;-73
2023/06/20 07:13:51;;;;;;;12.18;7.18;;;32.70;99.90;;;;;;4939211;29;20023;-73
2023/06/20 07:16:17;;;;;;;14.82;10.63;;;32.70;99.90;;;;;;4939061;29;20048;-73
2023/06/20 07:18:44;;;;;;;12.75;9.10;;;32.70;99.90;;;;;;4940766;29;20024;-72
2023/06/20 07:21:10;;;;;;;18.25;13.68;;;32.70;99.90;;;;;;4947546;29;20500;-73
2023/06/20 07:23:37;;;;;;;18.80;8.80;;;32.70;99.90;;;;;;4939429;29;20486;-73
2023/06/20 07:26:04;;;;;;;12.63;10.05;;;32.70;99.90;;;;;;4958845;23;20060;-71
2023/06/20 07:28:31;;;;;;;21.65;14.02;;;32.50;99.90;;;;;;4939101;29;20035;-71
2023/06/20 07:30:57;;;;;;;14.05;9.90;;;32.50;99.90;;;;;;4931148;29;20031;-71
2023/06/20 07:33:24;;;;;;;15.57;10.38;;;32.40;99.90;;;;;;4919980;29;20093;-72
2023/06/20 07:35:50;;;;;;;16.10;11.57;;;32.50;99.90;;;;;;4919904;29;20028;-73
2023/06/20 07:38:17;;;;;;;19.25;12.13;;;32.50;99.90;;;;;;4919814;29;20429;-72
2023/06/20 07:40:44;;;;;;;18.15;11.20;;;32.50;99.90;;;;;;4919897;29;20028;-72
2023/06/20 07:43:10;;;;;;;14.20;9.80;;;32.60;99.90;;;;;;4919872;29;20024;-71
2023/06/20 07:45:37;;;;;;;10.68;9.15;;;32.50;99.90;;;;;;4920213;29;20253;-71
2023/06/20 07:48:04;;;;;;;16.52;12.32;;;32.50;99.90;;;;;;4919612;29;20028;-71
2023/06/20 07:50:31;;;;;;;15.18;10.23;;;32.60;99.90;;;;;;4919727;29;20028;-71
2023/06/20 07:52:58;;;;;;;11.55;9.02;;;32.70;99.90;;;;;;4919730;29;20535;-71
2023/06/20 07:55:24;;;;;;;13.38;10.25;;;32.70;99.90;;;;;;4919395;29;20032;-71
2023/06/20 07:57:53;;;;;;;17.52;10.32;;;32.70;99.90;;;;;;4938503;29;20024;-71
2023/06/20 08:00:21;;;;;;;15.38;10.63;;;32.70;99.90;;;;;;4940754;29;20048;-69
2023/06/20 08:02:47;;;;;;;16.77;12.90;;;32.70;99.90;;;;;;4946639;29;20544;-70
2023/06/20 08:05:14;;;;;;;17.17;11.82;;;32.70;99.90;;;;;;4938459;29;20020;-71
2023/06/20 08:07:40;;;;;;;17.15;11.93;;;32.70;99.90;;;;;;4938465;29;20028;-70
2023/06/20 08:10:10;;;;;;;20.73;11.18;;;32.70;99.90;;;;;;4938315;29;20098;-70
2023/06/20 08:12:39;;;;;;;17.25;10.40;;;32.70;99.90;;;;;;4946851;29;20460;-71
2023/06/20 08:15:09;;;;;;;13.57;10.73;;;32.70;99.90;;;;;;4957392;29;20384;-72
2023/06/20 08:17:36;;;;;;;14.77;11.23;;;32.60;99.90;;;;;;4957009;29;20098;-73
2023/06/20 08:20:06;;;;;;;14.80;10.85;;;32.60;99.90;;;;;;4956134;28;20023;-72
2023/06/20 08:22:33;;;;;;;16.23;11.35;;;32.60;99.90;;;;;;4956779;29;20062;-73
2023/06/20 08:25:03;;;;;;;23.20;13.00;;;32.60;99.90;;;;;;4957024;29;20047;-73
2023/06/20 08:27:29;;;;;;;19.85;14.55;;;32.60;99.90;;;;;;4956995;29;20023;-74
2023/06/20 08:29:56;;;;;;;18.05;11.65;;;32.50;99.90;;;;;;4956957;29;20031;-73
2023/06/20 08:32:22;;;;;;;15.70;12.75;;;32.50;99.90;;;;;;4956774;29;20023;-75
2023/06/20 08:34:49;;;;;;;16.55;12.15;;;32.60;99.90;;;;;;4957008;29;20106;-75
2023/06/20 08:37:21;;;;;;;19.73;12.48;;;32.50;99.90;;;;;;4956743;29;20039;-72
2023/06/20 08:39:47;;;;;;;16.98;11.85;;;32.50;99.90;;;;;;4956766;29;20027;-72
2023/06/20 08:42:14;;;;;;;19.20;12.73;;;32.50;99.90;;;;;;4956930;29;20028;-73
2023/06/20 08:44:40;;;;;;;17.92;13.82;;;32.50;99.90;;;;;;4956827;29;20503;-71
2023/06/20 08:47:07;;;;;;;18.02;12.15;;;32.50;99.90;;;;;;4956536;29;20484;-72
2023/06/20 08:49:34;;;;;;;16.17;12.02;;;32.60;99.90;;;;;;4956681;29;20478;-71
2023/06/20 08:52:09;;;;;;;15.27;11.88;;;32.50;99.90;;;;;;4956895;29;20031;-72
2023/06/20 08:54:40;;;;;;;13.43;11.20;;;32.50;99.90;;;;;;4956569;29;20023;-72
2023/06/20 08:57:06;;;;;;;16.37;11.10;;;32.40;99.90;;;;;;4956407;29;20102;-71
2023/06/20 08:59:36;;;;;;;16.83;12.40;;;32.40;99.90;;;;;;4956387;29;20155;-73
2023/06/20 09:02:04;;;;;;;15.18;12.63;;;32.40;99.90;;;;;;4956408;29;20030;-71
2023/06/20 09:04:30;;;;;;;15.70;12.32;;;32.40;99.90;;;;;;4939202;29;20027;-69
2023/06/20 09:06:57;;;;;;;14.15;12.13;;;32.30;99.90;;;;;;4956163;29;20031;-71
2023/06/20 09:09:24;;;;;;;18.45;14.00;;;32.30;99.90;;;;;;4956558;29;20428;-70
2023/06/20 09:11:59;;;;;;;15.10;12.07;;;32.30;99.90;;;;;;4956255;29;20030;-71
2023/06/20 09:14:29;;;;;;;14.10;11.00;;;32.30;99.90;;;;;;4956331;29;20023;-70
2023/06/20 09:16:56;;;;;;;14.85;10.63;;;32.30;99.90;;;;;;4957198;29;20023;-69
2023/06/20 09:19:23;;;;;;;18.02;12.20;;;32.30;99.90;;;;;;4956553;29;20024;-70
2023/06/20 09:21:50;;;;;;;17.85;12.18;;;32.30;99.90;;;;;;4956015;29;20392;-70
2023/06/20 09:24:19;;;;;;;21.35;14.65;;;32.30;99.90;;;;;;4957008;29;20051;-70
2023/06/20 09:26:49;;;;;;;23.17;15.07;;;32.20;99.90;;;;;;4956517;29;20496;-70
2023/06/20 09:29:17;;;;;;;21.55;15.68;;;32.20;99.90;;;;;;4956512;29;20031;-70
2023/06/20 09:31:48;;;;;;;20.52;14.88;;;32.20;99.90;;;;;;4956169;28;20031;-71
2023/06/20 09:34:16;;;;;;;24.40;15.23;;;32.20;99.90;;;;;;4955891;29;20030;-70
2023/06/20 09:36:43;;;;;;;27.05;18.85;;;32.20;99.90;;;;;;4942583;29;20032;-70
2023/06/20 09:39:20;;;;;;;129.43;77.70;;;32.20;99.90;;;;;;4955506;29;20050;-70
2023/06/20 09:41:49;;;;;;;909.75;589.85;;;32.20;99.90;;;;;;4956429;29;20023;-70
2023/06/20 09:44:17;;;;;;;648.28;394.85;;;32.20;99.90;;;;;;4950439;29;20035;-69
2023/06/20 09:46:44;;;;;;;1962.95;859.40;;;32.30;99.90;;;;;;4942867;29;20034;-70
2023/06/20 09:49:15;;;;;;;1431.38;718.72;;;32.20;99.90;;;;;;4936886;29;20499;-69
2023/06/20 09:52:04;;;;;;;1421.03;672.37;;;32.30;99.90;;;;;;4937265;29;20039;-70
2023/06/20 09:54:49;;;;;;;1999.90;877.92;;;32.30;99.90;;;;;;4937035;29;20254;-68
2023/06/20 09:57:21;;;;;;;836.30;442.00;;;32.30;99.90;;;;;;4937316;29;20026;-70
2023/06/20 09:59:50;;;;;;;472.58;223.85;;;32.30;99.90;;;;;;4936879;29;20024;-71
2023/06/20 10:02:18;;;;;;;324.98;143.70;;;32.30;99.90;;;;;;4936843;29;20039;-68
2023/06/20 10:04:46;;;;;;;523.15;322.65;;;32.30;99.90;;;;;;4937182;29;20115;-70
2023/06/20 10:07:14;;;;;;;370.42;183.05;;;32.20;99.90;;;;;;4956200;29;20078;-71
2023/06/20 10:09:44;;;;;;;171.98;79.10;;;32.10;99.90;;;;;;4956288;29;20023;-71
2023/06/20 10:12:11;;;;;;;110.03;50.72;;;32.10;99.90;;;;;;4955991;29;20071;-71
2023/06/20 10:14:38;;;;;;;186.90;71.75;;;32.10;99.90;;;;;;4956138;29;20034;-71
2023/06/20 10:17:11;;;;;;;156.38;59.15;;;32.10;99.90;;;;;;4954546;29;20019;-72
2023/06/20 10:19:51;;;;;;;240.85;91.88;;;32.10;99.90;;;;;;4941958;29;20110;-70
2023/06/20 10:22:44;;;;;;;146.15;72.53;;;32.10;99.90;;;;;;4950999;28;20607;-70
2023/06/20 10:25:14;;;;;;;108.93;53.13;;;32.00;99.90;;;;;;4933600;28;20076;-70
2023/06/20 10:27:44;;;;;;;122.53;61.88;;;31.90;99.90;;;;;;4945652;28;20066;-69
2023/06/20 10:30:15;;;;;;;129.00;67.60;;;31.90;99.90;;;;;;4950032;28;20035;-70
2023/06/20 10:33:00;;;;;;;54.90;35.63;;;;;;;;;;4967702;28;20027;-69
2023/06/20 10:35:28;;;;;;;65.00;25.92;;;;;;;;;;4955137;28;20027;-69
2023/06/20 10:38:06;;;;;;;200.52;64.80;;;;;;;;;;4947878;28;20358;-69
2023/06/20 10:40:35;;;;;;;613.75;253.85;;;;;;;;;;4945195;29;20024;-68
2023/06/20 10:43:06;;;;;;;343.23;116.78;;;;;;;;;;4948533;28;20027;-69
2023/06/20 10:45:33;;;;;;;188.43;61.83;;;;;;;;;;4952603;28;20101;-69
2023/06/20 10:48:03;;;;;;;209.15;68.45;;;;;;;;;;4951092;28;20023;-69
2023/06/20 10:50:30;;;;;;;296.30;94.70;;;;;;;;;;4952641;28;20082;-69
2023/06/20 10:53:00;;;;;;;1016.58;449.67;;;;;;;;;;4952934;28;20024;-69
2023/06/20 10:55:27;;;;;;;686.47;424.02;;;;;;;;;;4950970;28;20511;-70
2023/06/20 10:57:55;;;;;;;559.38;326.73;;;;;;;;;;4951614;28;20023;-69
2023/06/20 11:00:22;;;;;;;399.10;199.80;;;;;;;;;;4937259;29;20029;-69
2023/06/20 11:02:56;;;;;;;327.67;168.70;;;;;;;;;;4955849;28;20063;-69
2023/06/20 11:05:26;;;;;;;88.13;48.28;;;;;;;;;;4959500;28;20523;-69
2023/06/20 11:07:58;;;;;;;150.18;75.32;;;;;;;;;;4950289;28;20032;-69
2023/06/20 11:10:28;;;;;;;406.30;245.15;;;;;;;;;;4953803;28;20034;-70
2023/06/20 11:12:55;;;;;;;388.98;224.30;;;;;;;;;;4972925;28;20038;-68
2023/06/20 11:15:25;;;;;;;656.28;412.42;;;;;;;;;;4961638;28;20016;-69
2023/06/20 11:17:52;;;;;;;423.08;278.70;;;;;;;;;;4977849;28;20019;-70
2023/06/20 11:20:20;;;;;;;400.42;266.27;;;;;;;;;;4968164;28;20074;-69
2023/06/20 11:22:47;;;;;;;377.20;213.75;;;;;;;;;;4952699;28;20032;-68
2023/06/20 11:25:24;;;;;;;784.95;701.22;;;;;;;;;;4958878;28;20054;-69
2023/06/20 11:27:51;;;;;;;1805.50;999.90;;;;;;;;;;4957677;28;20058;-67
2023/06/20 11:30:17;;;;;;;;;;;;;;;;;;4960023;29;20388;-68
2023/06/20 11:32:43;;;;;;;;;;;;;;;;;;4955804;28;19963;-70
2023/06/20 11:35:09;;;;;;;;;;;;;;;;;;4955584;28;19926;-69
2023/06/20 11:37:37;;;;;;;;;;;;;;;;;;4974939;28;19977;-70
2023/06/20 11:40:05;;;;;;;;;;;;;;;;;;4967307;28;19968;-70
2023/06/20 11:42:31;;;;;;;;;;;;;;;;;;4975727;28;19943;-70
2023/06/20 11:44:57;;;;;;;;;;;;;;;;;;4978882;28;19924;-68
2023/06/20 11:47:24;;;;;;;;;;;;;;;;;;4962558;28;20303;-69
2023/06/20 11:49:56;;;;;;;;;;;;;;;;;;4972735;28;19930;-70
2023/06/20 11:52:24;;;;;;;;;;;;;;;;;;4967788;28;20403;-68
2023/06/20 11:54:51;;;;;;;;;;;;;;;;;;4950814;28;19940;-70
2023/06/20 11:57:17;;;;;;;;;;;;;;;;;;4976069;28;19957;-68
2023/06/20 11:59:43;;;;;;;;;;;;;;;;;;4973869;28;19955;-67
2023/06/20 12:02:10;;;;;;;;;;;;;;;;;;4967868;28;19958;-67
2023/06/20 12:04:42;;;;;;;;;;;;;;;;;;4978173;28;19955;-69
2023/06/20 12:07:08;;;;;;;;;;;;;;;;;;4961615;28;20010;-69
2023/06/20 12:09:35;;;;;;;;;;;;;;;;;;4954883;28;19959;-67
2023/06/20 12:12:01;;;;;;;;;;;;;;;;;;4965798;28;19953;-69
2023/06/20 12:14:27;;;;;;;;;;;;;;;;;;4967620;28;19943;-70
2023/06/20 12:16:53;;;;;;;;;;;;;;;;;;4972939;28;19937;-69
2023/06/20 12:19:19;;;;;;;;;;;;;;;;;;4960655;28;20009;-69
2023/06/20 12:21:46;;;;;;;;;;;;;;;;;;4964550;28;19932;-70
2023/06/20 12:24:12;;;;;;;;;;;;;;;;;;4970174;28;19930;-71
2023/06/20 12:26:38;;;;;;;;;;;;;;;;;;4954948;28;19968;-70
2023/06/20 12:29:04;;;;;;;;;;;;;;;;;;4953015;28;19934;-70
2023/06/20 12:31:31;;;;;;;;;;;;;;;;;;4951852;29;19947;-69
2023/06/20 12:33:57;;;;;;;;;;;;;;;;;;4950300;28;19927;-70
2023/06/20 12:36:24;;;;;;;;;;;;;;;;;;4947556;29;19960;-69
2023/06/20 12:38:50;;;;;;;;;;;;;;;;;;4950833;28;19931;-70
2023/06/20 12:41:17;;;;;;;;;;;;;;;;;;4953941;28;19956;-70
2023/06/20 12:43:43;;;;;;;;;;;;;;;;;;4953936;28;20020;-72
2023/06/20 12:46:10;;;;;;;;;;;;;;;;;;4950771;28;20024;-71
2023/06/20 12:48:36;;;;;;;;;;;;;;;;;;4952608;28;19942;-69
2023/06/20 12:51:02;;;;;;;;;;;;;;;;;;4952988;28;19949;-69
2023/06/20 12:53:28;;;;;;;;;;;;;;;;;;4939073;28;19924;-70
2023/06/20 12:55:54;;;;;;;;;;;;;;;;;;4929933;29;19974;-69
2023/06/20 12:58:20;;;;;;;;;;;;;;;;;;4947214;28;19928;-70
2023/06/20 13:00:51;;;;;;;;;;;;;;;;;;4950191;28;20403;-66
2023/06/20 13:03:17;;;;;;;;;;;;;;;;;;4933752;29;19925;-70
2023/06/20 13:05:43;;;;;;;;;;;;;;;;;;4951357;28;19969;-70
2023/06/20 13:08:10;;;;;;;;;;;;;;;;;;4951999;28;19971;-69
2023/06/20 13:10:39;;;;;;;;;;;;;;;;;;4950507;29;19936;-70
2023/06/20 13:13:05;;;;;;;;;;;;;;;;;;4933285;29;20221;-70
2023/06/20 13:15:34;;;;;;;;;;;;;;;;;;4952132;28;20093;-68
2023/06/20 13:18:04;;;;;;;;;;;;;;;;;;4950760;28;19938;-71
2023/06/20 13:20:30;;;;;;;;;;;;;;;;;;4949477;28;20323;-71
2023/06/20 13:22:56;;;;;;;;;;;;;;;;;;4950312;28;20010;-69
2023/06/20 13:25:23;;;;;;;;;;;;;;;;;;4954013;28;19979;-71